Winters Aire Park Airport

CFY4 · Alberta, Canadá

4 de octubre de 2022

Hora Código Tiempo Temp. Visibilidad Cielo nuboso Viento METAR/SPECI
05:00
V
8 °C 15 mi - 180° 180° 3 kt METAR CYYC 041100Z 18003KT 15SM SKC 08/04 A3007 RMK SLP189
04:00
V
8 °C 14 mi - 200° 200° 3 kt METAR CYYC 041000Z 20003KT 14SM SKC 08/04 A3007 RMK SLP190
03:00
V
9 °C 15 mi - Var 000° 0 kt METAR CYYC 040900Z 00000KT 15SM SKC 09/04 A3007 RMK SLP189 DENSITY ALT 3700FT
02:00
V
9 °C 15 mi - Var Var 2 kt METAR CYYC 040800Z VRB02KT 15SM SKC 09/03 A3008 RMK SLP192
01:00
V
10 °C 15 mi - 310° 310° 3 kt METAR CYYC 040700Z 31003KT 15SM SKC 10/04 A3008 RMK SLP194 DENSITY ALT 3700FT
00:00
V
12 °C 15 mi - Var 000° 0 kt METAR CYYC 040600Z 00000KT 15SM SKC 12/05 A3008 RMK SLP194 DENSITY ALT 4000FT

3 de octubre de 2022

Hora Código Tiempo Temp. Visibilidad Cielo nuboso Viento METAR/SPECI
23:00
V
15 °C 15 mi - Var Var 3 kt METAR CYYC 040500Z VRB03KT 15SM SKC 15/05 A3009 RMK SLP194 DENSITY ALT 4300FT
22:00
V
15 °C 15 mi - Var 000° 0 kt METAR CYYC 040400Z 00000KT 15SM SKC 15/04 A3009 RMK SLP200 DENSITY ALT 4300FT
21:00
V
16 °C 15 mi - 160° 160° 6 kt METAR CYYC 040300Z 16006KT 15SM SKC 16/04 A3009 RMK SLP201 DENSITY ALT 4400FT
20:00
V
18 °C 15 mi - 140° 140° 6 kt METAR CYYC 040200Z 14006KT 15SM SKC 18/05 A3008 RMK SLP197 DENSITY ALT 4700FT
19:00
V
21 °C 15 mi - 130° 130° 5 kt METAR CYYC 040100Z 13005KT 15SM FEW080 21/04 A3007 RMK AC1 AC TR SLP192 DENSITY ALT 5000FT
18:00
V
23 °C 15 mi - 140° 140° 7 kt METAR CYYC 040000Z 14007KT 15SM FEW080 23/05 A3008 RMK AC1 AC TR SLP191 DENSITY ALT 5200FT
17:00
V
23 °C 15 mi - 180° 180° 4 kt METAR CYYC 032300Z 18004KT 090V200 15SM FEW080 23/05 A3008 RMK AC1 AC TR SLP192 DENSITY ALT 5200FT
16:00
V
23 °C 15 mi - 150° 150° 3 kt METAR CYYC 032200Z 15003KT 120V210 15SM FEW080 23/06 A3010 RMK AC1 AC TR SLP199 DENSITY ALT 5100FT
15:00
V
22 °C 15 mi - 190° 190° 7 kt METAR CYYC 032100Z 19007KT 15SM FEW100 22/06 A3011 RMK AC1 AC TR SLP201 DENSITY ALT 5100FT
14:00
V
21 °C 15 mi - 160° 160° 7 kt METAR CYYC 032000Z 16007KT 140V210 15SM FEW100 21/06 A3013 RMK AC1 AC TR SLP207 DENSITY ALT 5000FT
13:00
V
20 °C 15 mi - 140° 140° 5 kt METAR CYYC 031900Z 14005KT 110V220 15SM FEW130 20/07 A3015 RMK AC1 AC TR SLP215 DENSITY ALT 4800FT
12:00
V
18 °C 15 mi - 200° 200° 4 kt METAR CYYC 031800Z 20004KT 15SM FEW130 18/07 A3016 RMK AC1 AC TR SLP219 DENSITY ALT 4600FT
11:00
V
16 °C 15 mi - Var Var 2 kt METAR CYYC 031700Z VRB02KT 15SM FEW130 16/07 A3017 RMK AC1 AC TR SLP227 DENSITY ALT 4300FT
10:00
V
13 °C 15 mi - Var 000° 0 kt METAR CYYC 031600Z 00000KT 15SM FEW130 13/06 A3017 RMK AC1 SLP230 DENSITY ALT 3900FT
09:00
V
9 °C 15 mi - 190° 190° 2 kt METAR CYYC 031500Z 19002KT 15SM FEW130 09/06 A3017 RMK AC2 SLP232
08:00
V
9 °C 15 mi 13.000 ft 200° 200° 3 kt METAR CYYC 031400Z 20003KT 15SM BKN130 09/05 A3016 RMK AC5 SLP232
07:00
V
8 °C 15 mi 13.000 ft Var 000° 0 kt METAR CYYC 031300Z 00000KT 15SM BKN130 08/05 A3016 RMK AC7 SLP228
06:00
V
8 °C 15 mi - Var 000° 0 kt METAR CYYC 031200Z 00000KT 15SM SCT110 SCT130 08/04 A3016 RMK AC4AC1 AC TR SLP221
05:00
V
8 °C 15 mi - 160° 160° 3 kt METAR CYYC 031100Z 16003KT 15SM SKC 08/05 A3015 RMK SLP217
04:00
V
7 °C 15 mi - 010° 010° 3 kt METAR CYYC 031000Z 01003KT 15SM SKC 07/04 A3015 RMK SLP215
03:00
V
11 °C 15 mi - 340° 340° 6 kt METAR CYYC 030900Z 34006KT 15SM SKC 11/06 A3015 RMK SLP211 DENSITY ALT 3700FT
02:00
V
11 °C 15 mi - 330° 330° 6 kt METAR CYYC 030800Z 33006KT 15SM SKC 11/05 A3014 RMK SLP211 DENSITY ALT 3800FT
01:00
V
11 °C 15 mi - Var Var 2 kt METAR CYYC 030700Z VRB02KT 15SM SKC 11/05 A3012 RMK SLP207 DENSITY ALT 3700FT
00:00
V
12 °C 15 mi - 350° 350° 5 kt METAR CYYC 030600Z 35005KT 310V030 15SM SKC 12/05 A3012 RMK SLP208 DENSITY ALT 3900FT

2 de octubre de 2022

Hora Código Tiempo Temp. Visibilidad Cielo nuboso Viento METAR/SPECI
23:00
V
12 °C 15 mi - Var 000° 0 kt METAR CYYC 030500Z 00000KT 15SM SKC 12/05 A3012 RMK SLP209 DENSITY ALT 3900FT
22:00
V
13 °C 15 mi - 350° 350° 2 kt METAR CYYC 030400Z 35002KT 15SM SKC 13/05 A3011 RMK SLP213 DENSITY ALT 4100FT
21:00
V
15 °C 15 mi - 340° 340° 4 kt METAR CYYC 030300Z 34004KT 15SM SKC 15/05 A3011 RMK SLP212 DENSITY ALT 4300FT
20:00
V
15 °C 15 mi - 010° 010° 7 kt METAR CYYC 030200Z 01007KT 15SM FEW092 15/05 A3010 RMK AC1 AC TR SLP213 DENSITY ALT 4300FT
19:00
V
18 °C 15 mi - 360° 360° 7 kt METAR CYYC 030100Z 36007KT 15SM FEW190 18/05 A3008 RMK AC1 AC TR SLP199 DENSITY ALT 4700FT
18:00
V
22 °C 15 mi - 360° 360° 10 kt METAR CYYC 030000Z 36010KT 15SM SKC 22/05 A3006 RMK SLP190 DENSITY ALT 5100FT
17:00
V
23 °C 15 mi - 010° 010° 13 kt METAR CYYC 022300Z 01013KT 15SM FEW190 23/04 A3005 RMK AC1 AC TR SLP181 DENSITY ALT 5200FT
16:00
V
23 °C 15 mi - 030° 030° 10 kt METAR CYYC 022200Z 03010KT 320V050 15SM FEW190 23/03 A3003 RMK AC1 AC TR SLP176 DENSITY ALT 5300FT
15:00
V
23 °C 15 mi - Var 000° 0 kt METAR CYYC 022100Z 00000KT 15SM SKC 23/03 A3004 RMK SLP175 DENSITY ALT 5300FT
14:00
V
21 °C 15 mi - 270° 270° 3 kt METAR CYYC 022000Z 27003KT 15SM SKC 21/04 A3005 RMK SLP184 DENSITY ALT 5000FT
13:00
V
20 °C 15 mi - 200° 200° 5 kt METAR CYYC 021900Z 20005KT 150V240 15SM SKC 20/05 A3006 RMK SLP186 DENSITY ALT 4900FT
12:00
V
18 °C 15 mi - 220° 220° 5 kt METAR CYYC 021800Z 22005KT 15SM SKC 18/03 A3006 RMK SLP189 DENSITY ALT 4700FT
11:00
V
15 °C 15 mi - 220° 220° 7 kt METAR CYYC 021700Z 22007KT 15SM SKC 15/04 A3007 RMK SLP193 DENSITY ALT 4400FT
10:00
V
11 °C 15 mi - 190° 190° 6 kt METAR CYYC 021600Z 19006KT 15SM SKC 11/05 A3006 RMK SLP196 DENSITY ALT 3800FT
09:00
V
8 °C 15 mi - 210° 210° 3 kt METAR CYYC 021500Z 21003KT 15SM SKC 08/04 A3005 RMK SLP195
08:00
V
5 °C 15 mi - Var Var 2 kt METAR CYYC 021400Z VRB02KT 15SM SKC 05/03 A3004 RMK SLP192
07:00
V
6 °C 15 mi - 230° 230° 6 kt METAR CYYC 021300Z 23006KT 15SM SKC 06/04 A3003 RMK SLP184
06:00
V
5 °C 15 mi - 190° 190° 6 kt METAR CYYC 021200Z 19006KT 15SM SKC 05/04 A3003 RMK SLP183
Datos más antiguos

Nosotros y terceros seguimos tu comportamiento en Internet en nuestro sitio web con cookies. Si continúas, asumimos que estás de acuerdo con nuestra política de cookies. Más información